createdAt,value
2019-05-01T00:01:27.979Z,9.07
2019-05-01T00:04:12.289Z,8.86
2019-05-01T00:06:45.428Z,8.58
2019-05-01T00:09:14.489Z,8.64
2019-05-01T00:11:43.580Z,8.68
2019-05-01T00:14:14.075Z,8.70
2019-05-01T00:16:43.841Z,8.71
2019-05-01T00:19:13.482Z,8.64
2019-05-01T00:21:42.627Z,8.56
2019-05-01T00:24:11.709Z,8.57
2019-05-01T00:26:40.806Z,8.53
2019-05-01T00:29:10.302Z,8.53
2019-05-01T00:31:39.319Z,8.51
2019-05-01T00:34:08.435Z,8.48
2019-05-01T00:36:37.511Z,8.43
2019-05-01T00:39:07.351Z,8.33
2019-05-01T00:41:36.452Z,8.34
2019-05-01T00:44:05.650Z,8.33
2019-05-01T00:46:34.793Z,8.31
2019-05-01T00:49:04.178Z,8.20
2019-05-01T00:51:33.280Z,8.17
2019-05-01T00:54:02.337Z,8.14
2019-05-01T00:56:53.459Z,8.10
2019-05-01T00:59:29.659Z,6.68
2019-05-01T01:02:22.255Z,8.08
2019-05-01T01:04:51.349Z,8.04
2019-05-01T01:07:20.424Z,8.01
2019-05-01T01:09:50.846Z,7.97
2019-05-01T01:12:20.129Z,7.92
2019-05-01T01:14:49.237Z,7.86
2019-05-01T01:17:18.330Z,7.84
2019-05-01T01:19:47.441Z,7.83
2019-05-01T01:22:16.456Z,7.80
2019-05-01T01:24:45.573Z,7.66
2019-05-01T01:27:14.668Z,7.57
2019-05-01T01:29:43.875Z,7.51
2019-05-01T01:32:13.006Z,7.43
2019-05-01T01:34:42.074Z,7.38
2019-05-01T01:37:11.124Z,7.43
2019-05-01T01:39:40.190Z,7.47
2019-05-01T01:42:09.747Z,7.63
2019-05-01T01:44:54.196Z,7.60
2019-05-01T01:47:23.278Z,7.57
2019-05-01T01:49:53.996Z,7.57
2019-05-01T01:52:23.090Z,7.50
2019-05-01T01:54:52.219Z,7.44
2019-05-01T01:57:21.270Z,7.46
2019-05-01T01:59:50.483Z,7.39
2019-05-01T02:02:56.698Z,7.31
2019-05-01T02:05:29.047Z,7.32
2019-05-01T02:07:58.110Z,7.20
2019-05-01T02:10:27.461Z,7.25
2019-05-01T02:12:56.510Z,7.27
2019-05-01T02:15:25.617Z,7.23
2019-05-01T02:17:54.694Z,7.15
2019-05-01T02:20:23.839Z,7.08
2019-05-01T02:22:52.846Z,6.92
2019-05-01T02:25:22.714Z,6.90
2019-05-01T02:28:10.718Z,6.88
2019-05-01T02:30:41.478Z,6.78
2019-05-01T02:33:11.591Z,6.51
2019-05-01T02:35:40.665Z,6.61
2019-05-01T02:38:11.019Z,6.65
2019-05-01T02:40:46.062Z,6.66
2019-05-01T02:43:16.562Z,6.69
2019-05-01T02:45:45.967Z,6.67
2019-05-01T02:48:17.728Z,6.65
2019-05-01T02:50:47.251Z,6.64
2019-05-01T02:53:16.537Z,6.60
2019-05-01T02:55:49.963Z,6.63
2019-05-01T02:58:19.122Z,6.56
2019-05-01T03:00:48.263Z,6.53
2019-05-01T03:03:17.376Z,6.53
2019-05-01T03:05:46.421Z,6.48
2019-05-01T03:08:15.572Z,6.42
2019-05-01T03:10:44.732Z,6.42
2019-05-01T03:13:13.740Z,6.40
2019-05-01T03:15:42.825Z,6.31
2019-05-01T03:18:21.906Z,6.33
2019-05-01T03:20:57.332Z,6.36
2019-05-01T03:23:34.516Z,6.32
2019-05-01T03:26:03.559Z,6.27
2019-05-01T03:28:32.775Z,6.17
2019-05-01T03:31:01.846Z,6.16
2019-05-01T03:33:32.300Z,6.10
2019-05-01T03:36:01.409Z,6.05
2019-05-01T03:38:31.146Z,6.07
2019-05-01T03:41:00.314Z,6.06
2019-05-01T03:43:29.379Z,6.03
2019-05-01T03:45:58.488Z,6.05
2019-05-01T03:48:27.543Z,6.04
2019-05-01T03:50:56.637Z,5.94
2019-05-01T03:53:25.724Z,5.92
2019-05-01T03:55:54.875Z,5.88
2019-05-01T03:58:24.043Z,5.86
2019-05-01T04:01:11.148Z,5.86
2019-05-01T04:03:47.316Z,5.87
2019-05-01T04:06:16.400Z,5.88
2019-05-01T04:08:45.516Z,5.81
2019-05-01T04:11:14.686Z,5.87
2019-05-01T04:13:45.181Z,5.87
2019-05-01T04:16:14.251Z,5.88
2019-05-01T04:18:43.309Z,5.87
2019-05-01T04:21:12.345Z,5.86
2019-05-01T04:23:43.419Z,5.89
2019-05-01T04:26:12.750Z,5.88
2019-05-01T04:29:03.607Z,5.91
2019-05-01T04:32:03.774Z,5.97
2019-05-01T04:34:54.733Z,6.06
2019-05-01T04:37:24.704Z,6.16
2019-05-01T04:39:53.777Z,6.18
2019-05-01T04:42:22.879Z,4.32
2019-05-01T04:44:51.882Z,6.25
2019-05-01T04:47:21.030Z,6.31
2019-05-01T04:49:50.056Z,6.30
2019-05-01T04:52:19.141Z,6.41
2019-05-01T04:54:48.212Z,6.60
2019-05-01T04:57:17.278Z,6.76
2019-05-01T04:59:46.391Z,6.83
2019-05-01T05:02:22.793Z,6.92
2019-05-01T05:04:51.872Z,7.17
2019-05-01T05:07:20.991Z,7.36
2019-05-01T05:09:51.238Z,7.58
2019-05-01T05:12:42.262Z,7.83
2019-05-01T05:15:27.544Z,8.10
2019-05-01T05:17:57.288Z,8.35
2019-05-01T05:20:26.381Z,8.69
2019-05-01T05:22:55.407Z,8.91
2019-05-01T05:25:24.459Z,9.13
2019-05-01T05:27:53.554Z,9.35
2019-05-01T05:30:22.722Z,9.69
2019-05-01T05:32:51.918Z,9.95
2019-05-01T05:35:21.081Z,10.10
2019-05-01T05:38:07.949Z,10.40
2019-05-01T05:40:37.425Z,10.55
2019-05-01T05:43:07.575Z,9.41
2019-05-01T05:45:36.573Z,9.87
2019-05-01T05:48:06.987Z,10.42
2019-05-01T05:50:42.514Z,10.31
2019-05-01T05:53:12.466Z,10.97
2019-05-01T05:55:44.932Z,11.37
2019-05-01T05:58:29.322Z,10.94
2019-05-01T06:01:17.822Z,10.71
2019-05-01T06:04:07.805Z,11.42
2019-05-01T06:07:05.570Z,12.12
2019-05-01T06:09:44.664Z,12.02
2019-05-01T06:12:21.373Z,10.87
2019-05-01T06:14:55.079Z,11.26
2019-05-01T06:17:30.237Z,10.52
2019-05-01T06:20:07.548Z,11.15
2019-05-01T06:22:54.435Z,11.20
2019-05-01T06:25:28.289Z,11.74
2019-05-01T06:27:57.424Z,11.34
2019-05-01T06:30:26.741Z,12.20
2019-05-01T06:32:55.859Z,12.62
2019-05-01T06:35:24.958Z,13.04
2019-05-01T06:38:05.569Z,13.50
2019-05-01T06:40:40.604Z,13.13
2019-05-01T06:43:13.216Z,14.65
2019-05-01T06:45:46.935Z,13.33
2019-05-01T06:48:18.896Z,14.33
2019-05-01T06:50:53.343Z,13.90
2019-05-01T06:53:22.349Z,15.36
2019-05-01T06:55:51.591Z,15.36
2019-05-01T06:58:21.870Z,16.01
2019-05-01T07:00:51.039Z,17.03
2019-05-01T07:03:20.216Z,16.87
2019-05-01T07:05:54.542Z,19.14
2019-05-01T07:08:24.829Z,19.79
2019-05-01T07:10:50.953Z,19.09
2019-05-01T07:13:20.046Z,20.09
2019-05-01T07:15:49.133Z,20.82
2019-05-01T07:18:18.821Z,20.71
2019-05-01T07:20:51.713Z,20.35
2019-05-01T07:23:21.650Z,21.54
2019-05-01T07:25:50.701Z,19.57
2019-05-01T07:28:19.890Z,20.92
2019-05-01T07:30:58.497Z,21.47
2019-05-01T07:33:28.909Z,21.76
2019-05-01T07:35:58.814Z,22.77
2019-05-01T07:38:38.501Z,22.53
2019-05-01T07:41:06.589Z,22.75
2019-05-01T07:43:45.900Z,22.52
2019-05-01T07:46:33.903Z,23.46
2019-05-01T07:49:03.662Z,23.35
2019-05-01T07:51:32.949Z,22.45
2019-05-01T07:54:03.649Z,23.01
2019-05-01T07:56:32.996Z,22.65
2019-05-01T07:59:02.049Z,23.58
2019-05-01T08:01:54.410Z,21.84
2019-05-01T08:04:35.776Z,22.10
2019-05-01T08:06:57.002Z,22.12
2019-05-01T08:09:25.697Z,20.60
2019-05-01T08:11:55.923Z,22.57
2019-05-01T08:14:24.957Z,22.59
2019-05-01T08:16:54.083Z,22.12
2019-05-01T08:19:45.153Z,22.78
2019-05-01T08:22:20.709Z,23.13
2019-05-01T08:24:53.784Z,22.50
2019-05-01T08:27:30.344Z,22.20
2019-05-01T08:30:24.436Z,22.44
2019-05-01T08:33:04.650Z,23.33
2019-05-01T08:35:36.533Z,22.69
2019-05-01T08:38:04.904Z,23.45
2019-05-01T08:40:34.108Z,23.60
2019-05-01T08:43:03.170Z,23.51
2019-05-01T08:46:00.181Z,23.03
2019-05-01T08:49:06.818Z,23.14
2019-05-01T08:51:34.833Z,23.26
2019-05-01T08:54:04.993Z,23.91
2019-05-01T08:56:34.087Z,24.76
2019-05-01T08:59:03.140Z,25.63
2019-05-01T09:01:32.214Z,25.69
2019-05-01T09:04:12.372Z,25.66
2019-05-01T09:06:34.924Z,26.18
2019-05-01T09:09:08.026Z,26.34
2019-05-01T09:11:36.317Z,26.18
2019-05-01T09:14:05.513Z,25.35
2019-05-01T09:16:36.081Z,25.17
2019-05-01T09:19:05.114Z,24.07
2019-05-01T09:21:37.838Z,25.03
2019-05-01T09:24:04.987Z,25.73
2019-05-01T09:26:50.038Z,26.54
2019-05-01T09:29:20.542Z,27.53
2019-05-01T09:31:50.195Z,27.27
2019-05-01T09:34:21.019Z,26.04
2019-05-01T09:36:50.339Z,26.43
2019-05-01T09:39:19.853Z,26.96
2019-05-01T09:41:48.922Z,27.47
2019-05-01T09:44:17.923Z,25.84
2019-05-01T09:46:46.996Z,24.88
2019-05-01T09:49:18.233Z,25.14
2019-05-01T09:52:04.962Z,26.21
2019-05-01T09:54:43.072Z,26.07
2019-05-01T09:57:12.933Z,26.08
2019-05-01T09:59:42.019Z,24.65
2019-05-01T10:02:12.240Z,25.77
2019-05-01T10:04:42.777Z,26.07
2019-05-01T10:07:11.845Z,27.41
2019-05-01T10:09:40.926Z,26.38
2019-05-01T10:12:11.550Z,26.98
2019-05-01T10:14:40.880Z,25.62
2019-05-01T10:17:10.115Z,25.59
2019-05-01T10:19:39.156Z,26.17
2019-05-01T10:22:08.375Z,25.05
2019-05-01T10:24:39.282Z,25.14
2019-05-01T10:27:10.429Z,25.58
2019-05-01T10:30:03.015Z,24.06
2019-05-01T10:32:44.737Z,26.27
2019-05-01T10:35:42.910Z,26.26
2019-05-01T10:38:10.800Z,25.90
2019-05-01T10:40:41.242Z,25.76
2019-05-01T10:43:10.319Z,24.85
2019-05-01T10:45:39.317Z,23.61
2019-05-01T10:48:08.411Z,23.22
2019-05-01T10:50:37.498Z,23.83
2019-05-01T10:53:06.613Z,24.57
2019-05-01T10:55:35.605Z,23.79
2019-05-01T10:58:04.686Z,23.31
2019-05-01T11:00:34.806Z,23.69
2019-05-01T11:03:03.914Z,22.22
2019-05-01T11:05:32.919Z,22.01
2019-05-01T11:08:02.077Z,23.81
2019-05-01T11:10:32.403Z,24.66
2019-05-01T11:13:01.443Z,23.43
2019-05-01T11:15:30.476Z,24.55
2019-05-01T11:17:59.523Z,25.38
2019-05-01T11:20:28.576Z,25.83
2019-05-01T11:22:57.623Z,25.03
2019-05-01T11:25:27.268Z,25.01
2019-05-01T11:27:56.286Z,23.96
2019-05-01T11:30:25.335Z,21.95
2019-05-01T11:33:13.365Z,21.14
2019-05-01T11:36:19.472Z,20.66
2019-05-01T11:38:56.365Z,21.49
2019-05-01T11:41:32.369Z,21.60
2019-05-01T11:44:01.497Z,22.52
2019-05-01T11:46:30.588Z,22.58
2019-05-01T11:49:00.872Z,22.84
2019-05-01T11:51:29.945Z,23.98
2019-05-01T11:53:58.994Z,22.89
2019-05-01T11:56:28.024Z,22.78
2019-05-01T11:58:57.195Z,22.84
2019-05-01T12:01:26.815Z,25.71
2019-05-01T12:03:55.954Z,26.27
2019-05-01T12:06:24.976Z,24.35
2019-05-01T12:08:54.104Z,22.71
2019-05-01T12:11:25.077Z,22.02
2019-05-01T12:13:54.289Z,22.07
2019-05-01T12:16:41.115Z,21.65
2019-05-01T12:19:10.268Z,21.37
2019-05-01T12:21:39.280Z,22.69
2019-05-01T12:24:09.572Z,23.16
2019-05-01T12:26:38.742Z,24.28
2019-05-01T12:29:08.760Z,24.86
2019-05-01T12:31:37.792Z,24.20
2019-05-01T12:34:06.781Z,25.14
2019-05-01T12:36:36.796Z,26.00
2019-05-01T12:39:08.804Z,24.72
2019-05-01T12:41:42.716Z,26.25
2019-05-01T12:44:13.293Z,24.89
2019-05-01T12:47:10.418Z,25.86
2019-05-01T12:49:39.457Z,24.88
2019-05-01T12:52:11.963Z,24.66
2019-05-01T12:54:52.058Z,23.41
2019-05-01T12:57:21.258Z,23.33
2019-05-01T12:59:50.295Z,22.73
2019-05-01T13:02:19.414Z,22.01
2019-05-01T13:04:48.487Z,23.77
2019-05-01T13:07:17.539Z,22.65
2019-05-01T13:09:46.634Z,23.03
2019-05-01T13:12:15.693Z,22.28
2019-05-01T13:14:44.753Z,22.11
2019-05-01T13:17:13.868Z,21.81
2019-05-01T13:19:42.906Z,22.03
2019-05-01T13:22:12.003Z,21.85
2019-05-01T13:24:50.105Z,22.65
2019-05-01T13:27:31.439Z,22.85
2019-05-01T13:30:14.511Z,22.20
2019-05-01T13:32:45.914Z,21.64
2019-05-01T13:35:14.952Z,21.84
2019-05-01T13:37:44.047Z,21.22
2019-05-01T13:40:13.208Z,21.44
2019-05-01T13:42:42.346Z,22.14
2019-05-01T13:45:11.461Z,21.89
2019-05-01T13:47:40.526Z,22.05
2019-05-01T13:50:09.540Z,22.50
2019-05-01T13:52:38.666Z,22.81
2019-05-01T13:55:07.730Z,22.97
2019-05-01T13:57:36.774Z,22.97
2019-05-01T14:00:06.176Z,22.02
2019-05-01T14:02:35.246Z,22.02
2019-05-01T14:05:04.367Z,22.12
2019-05-01T14:07:33.428Z,22.98
2019-05-01T14:10:02.518Z,22.98
2019-05-01T14:12:32.665Z,22.70
2019-05-01T14:15:01.696Z,22.57
2019-05-01T14:17:30.746Z,22.20
2019-05-01T14:20:21.486Z,22.20
2019-05-01T14:22:58.287Z,21.91
2019-05-01T14:25:30.409Z,21.76
2019-05-01T14:27:59.783Z,21.62
2019-05-01T14:30:28.866Z,22.07
2019-05-01T14:32:59.075Z,22.13
2019-05-01T14:35:28.100Z,21.99
2019-05-01T14:37:57.140Z,22.08
2019-05-01T14:40:26.376Z,22.15
2019-05-01T14:42:55.414Z,22.17
2019-05-01T14:45:24.435Z,22.11
2019-05-01T14:47:53.679Z,21.56
2019-05-01T14:50:22.699Z,21.09
2019-05-01T14:52:51.745Z,20.83
2019-05-01T14:55:20.763Z,21.23
2019-05-01T14:57:49.883Z,21.45
2019-05-01T15:00:19.324Z,21.24
2019-05-01T15:02:48.472Z,20.83
2019-05-01T15:05:17.551Z,20.51
2019-05-01T15:07:46.617Z,20.27
2019-05-01T15:10:15.656Z,20.28
2019-05-01T15:12:47.167Z,20.50
2019-05-01T15:15:33.793Z,20.55
2019-05-01T15:18:09.124Z,20.34
2019-05-01T15:20:38.118Z,20.27
2019-05-01T15:23:08.686Z,20.17
2019-05-01T15:25:38.125Z,20.08
2019-05-01T15:28:07.226Z,20.01
2019-05-01T15:30:36.411Z,20.22
2019-05-01T15:33:05.500Z,20.42
2019-05-01T15:35:34.580Z,20.46
2019-05-01T15:38:03.695Z,20.44
2019-05-01T15:40:41.301Z,20.39
2019-05-01T15:43:33.145Z,20.41
2019-05-01T15:46:02.202Z,20.53
2019-05-01T15:48:31.314Z,20.66
2019-05-01T15:51:00.317Z,20.93
2019-05-01T15:53:29.443Z,21.00
2019-05-01T15:55:58.510Z,20.98
2019-05-01T15:58:27.684Z,20.63
2019-05-01T16:00:56.723Z,20.66
2019-05-01T16:03:25.818Z,20.75
2019-05-01T16:05:54.871Z,20.90
2019-05-01T16:08:23.946Z,20.42
2019-05-01T16:11:05.232Z,20.72
2019-05-01T16:13:34.451Z,20.69
2019-05-01T16:16:03.695Z,20.24
2019-05-01T16:18:32.843Z,20.15
2019-05-01T16:21:02.068Z,20.41
2019-05-01T16:23:31.136Z,20.35
2019-05-01T16:26:00.424Z,20.26
2019-05-01T16:28:29.546Z,20.08
2019-05-01T16:30:58.553Z,20.11
2019-05-01T16:33:27.674Z,20.19
2019-05-01T16:35:56.790Z,20.23
2019-05-01T16:38:33.805Z,20.21
2019-05-01T16:41:07.940Z,20.13
2019-05-01T16:43:37.110Z,20.10
2019-05-01T16:46:06.225Z,20.10
2019-05-01T16:48:35.377Z,20.20
2019-05-01T16:51:04.452Z,20.10
2019-05-01T16:53:33.481Z,20.06
2019-05-01T16:56:02.535Z,20.12
2019-05-01T16:58:32.013Z,19.93
2019-05-01T17:01:04.514Z,19.75
2019-05-01T17:03:52.917Z,20.05
2019-05-01T17:06:30.657Z,19.97
2019-05-01T17:09:03.064Z,19.97
2019-05-01T17:11:33.285Z,19.90
2019-05-01T17:14:02.770Z,19.81
2019-05-01T17:16:31.857Z,19.94
2019-05-01T17:19:00.934Z,19.91
2019-05-01T17:21:30.057Z,19.77
2019-05-01T17:23:59.060Z,19.82
2019-05-01T17:26:28.142Z,19.93
2019-05-01T17:28:57.165Z,19.82
2019-05-01T17:31:27.888Z,19.72
2019-05-01T17:33:56.949Z,19.81
2019-05-01T17:36:26.022Z,19.71
2019-05-01T17:38:55.056Z,19.62
2019-05-01T17:41:27.047Z,19.46
2019-05-01T17:43:56.693Z,19.16
2019-05-01T17:46:25.949Z,18.77
2019-05-01T17:48:54.988Z,18.56
2019-05-01T17:51:24.292Z,18.32
2019-05-01T17:53:53.417Z,18.00
2019-05-01T17:56:27.854Z,17.77
2019-05-01T17:58:53.708Z,17.68
2019-05-01T18:01:54.830Z,17.73
2019-05-01T18:04:52.369Z,17.51
2019-05-01T18:07:21.667Z,17.35
2019-05-01T18:09:55.351Z,17.24
2019-05-01T18:12:23.334Z,17.13
2019-05-01T18:14:53.119Z,16.94
2019-05-01T18:17:22.192Z,16.82
2019-05-01T18:19:51.246Z,16.61
2019-05-01T18:22:48.443Z,16.34
2019-05-01T18:25:33.277Z,16.26
2019-05-01T18:28:12.729Z,16.20
2019-05-01T18:30:42.808Z,15.89
2019-05-01T18:33:11.893Z,15.75
2019-05-01T18:35:44.926Z,15.65
2019-05-01T18:38:19.216Z,15.48
2019-05-01T18:40:50.892Z,15.44
2019-05-01T18:43:19.985Z,15.30
2019-05-01T18:45:58.584Z,15.22
2019-05-01T18:48:35.889Z,15.20
2019-05-01T18:51:18.266Z,14.92
2019-05-01T18:53:48.021Z,14.78
2019-05-01T18:56:17.443Z,14.65
2019-05-01T18:58:47.059Z,14.48
2019-05-01T19:01:16.609Z,14.22
2019-05-01T19:03:45.652Z,14.02
2019-05-01T19:06:14.827Z,14.03
2019-05-01T19:08:43.942Z,14.02
2019-05-01T19:11:13.513Z,13.91
2019-05-01T19:13:43.503Z,13.82
2019-05-01T19:16:13.471Z,13.70
2019-05-01T19:18:43.173Z,13.56
2019-05-01T19:21:13.645Z,13.41
2019-05-01T19:23:43.304Z,13.45
2019-05-01T19:26:12.908Z,13.23
2019-05-01T19:28:42.413Z,13.04
2019-05-01T19:31:12.147Z,13.03
2019-05-01T19:33:41.892Z,13.11
2019-05-01T19:36:11.185Z,13.08
2019-05-01T19:38:40.451Z,12.93
2019-05-01T19:41:14.063Z,12.81
2019-05-01T19:43:42.208Z,12.74
2019-05-01T19:46:11.375Z,12.63
2019-05-01T19:48:40.525Z,12.52
2019-05-01T19:51:09.603Z,12.48
2019-05-01T19:53:38.871Z,12.43
2019-05-01T19:56:08.164Z,12.31
2019-05-01T19:58:37.277Z,12.18
2019-05-01T20:01:06.384Z,12.01
2019-05-01T20:03:37.118Z,11.86
2019-05-01T20:06:08.241Z,11.76
2019-05-01T20:08:37.883Z,11.73
2019-05-01T20:11:09.558Z,11.67
2019-05-01T20:13:37.924Z,11.58
2019-05-01T20:16:08.762Z,11.57
2019-05-01T20:18:37.939Z,11.63
2019-05-01T20:21:07.224Z,11.50
2019-05-01T20:23:36.476Z,11.19
2019-05-01T20:26:05.501Z,11.40
2019-05-01T20:28:34.786Z,11.20
2019-05-01T20:31:03.836Z,11.03
2019-05-01T20:33:38.106Z,11.01
2019-05-01T20:36:05.202Z,11.18
2019-05-01T20:38:34.511Z,10.99
2019-05-01T20:41:03.619Z,10.75
2019-05-01T20:43:33.586Z,10.88
2019-05-01T20:46:03.150Z,10.67
2019-05-01T20:48:32.363Z,10.83
2019-05-01T20:51:01.430Z,10.80
2019-05-01T20:53:30.638Z,10.69
2019-05-01T20:56:08.855Z,10.68
2019-05-01T20:58:38.609Z,10.65
2019-05-01T21:01:07.747Z,10.63
2019-05-01T21:03:39.543Z,10.62
2019-05-01T21:06:28.280Z,10.43
2019-05-01T21:09:13.702Z,10.42
2019-05-01T21:11:47.256Z,10.43
2019-05-01T21:14:22.421Z,10.43
2019-05-01T21:16:46.995Z,10.36
2019-05-01T21:19:16.075Z,10.26
2019-05-01T21:21:46.519Z,10.31
2019-05-01T21:24:15.596Z,10.37
2019-05-01T21:26:44.670Z,10.37
2019-05-01T21:29:14.193Z,9.60
2019-05-01T21:31:44.049Z,9.46
2019-05-01T21:34:14.500Z,9.62
2019-05-01T21:36:47.698Z,9.67
2019-05-01T21:39:15.587Z,9.88
2019-05-01T21:41:45.794Z,9.73
2019-05-01T21:44:14.962Z,9.69
2019-05-01T21:46:45.158Z,9.56
2019-05-01T21:49:14.224Z,9.56
2019-05-01T21:51:46.101Z,9.53
2019-05-01T21:54:15.884Z,9.67
2019-05-01T21:56:46.683Z,9.82
2019-05-01T21:59:15.900Z,9.57
2019-05-01T22:01:45.038Z,9.67
2019-05-01T22:04:14.810Z,9.69
2019-05-01T22:06:46.685Z,9.64
2019-05-01T22:09:22.676Z,9.36
2019-05-01T22:11:51.795Z,9.53
2019-05-01T22:14:48.847Z,9.59
2019-05-01T22:17:39.684Z,9.61
2019-05-01T22:20:10.489Z,9.59
2019-05-01T22:22:48.098Z,9.54
2019-05-01T22:25:21.380Z,9.50
2019-05-01T22:27:59.145Z,9.36
2019-05-01T22:30:47.527Z,9.51
2019-05-01T22:33:16.704Z,9.42
2019-05-01T22:35:48.119Z,9.36
2019-05-01T22:38:17.201Z,9.20
2019-05-01T22:41:05.415Z,9.24
2019-05-01T22:43:25.440Z,9.33
2019-05-01T22:45:56.306Z,9.36
2019-05-01T22:48:25.510Z,9.40
2019-05-01T22:50:59.035Z,9.20
2019-05-01T22:53:28.106Z,8.98
2019-05-01T22:56:02.131Z,9.09
2019-05-01T22:58:27.990Z,8.81
2019-05-01T23:00:58.415Z,8.98
2019-05-01T23:03:40.570Z,8.81
2019-05-01T23:06:06.237Z,8.91
2019-05-01T23:08:34.632Z,8.89
2019-05-01T23:11:04.349Z,8.85
2019-05-01T23:13:33.445Z,8.84
2019-05-01T23:16:02.456Z,8.53
2019-05-01T23:18:31.672Z,8.51
2019-05-01T23:21:01.027Z,8.44
2019-05-01T23:23:30.128Z,8.41
2019-05-01T23:25:59.206Z,8.59
2019-05-01T23:28:28.245Z,8.61
2019-05-01T23:30:57.331Z,8.50
2019-05-01T23:33:26.379Z,8.25
2019-05-01T23:35:55.546Z,7.84
2019-05-01T23:38:24.662Z,7.56
2019-05-01T23:40:53.824Z,7.78
2019-05-01T23:43:27.553Z,7.96
2019-05-01T23:45:53.663Z,7.87
2019-05-01T23:48:22.824Z,7.97
2019-05-01T23:50:51.928Z,8.07
2019-05-01T23:53:21.027Z,8.12
2019-05-01T23:55:50.073Z,8.18
2019-05-01T23:58:19.146Z,8.15
